Time;durP1;ratioP1;P1;durP2;ratioP2;P2;SDS_P1;SDS_P2;PMS_P1;PMS_P2;Temp;Humidity;BMP_temperature;BMP_pressure;BME280_temperature;BME280_humidity;BME280_pressure;Samples;Min_cycle;Max_cycle;Signal;HPM_P1;HPM_P2
2022/03/30 00:01:09;;;;;;;16.35;6.93;;;;;;;14.57;44.87;99156.31;5052919;28;20354;-37
2022/03/30 00:03:34;;;;;;;20.52;7.78;;;;;;;14.64;44.63;99156.13;5052932;28;20484;-37
2022/03/30 00:06:00;;;;;;;24.13;7.18;;;;;;;14.54;45.26;99155.94;5052569;28;20117;-38
2022/03/30 00:08:26;;;;;;;18.35;7.72;;;;;;;14.63;45.14;99151.84;5052604;28;20401;-38
2022/03/30 00:10:51;;;;;;;15.93;7.38;;;;;;;14.32;44.99;99148.66;5052673;28;20029;-37
2022/03/30 00:13:17;;;;;;;26.30;7.93;;;;;;;14.35;45.43;99153.50;5052283;28;20035;-37
2022/03/30 00:15:44;;;;;;;14.20;7.28;;;;;;;13.82;46.39;99144.00;5051763;28;20119;-37
2022/03/30 00:18:09;;;;;;;22.27;7.55;;;;;;;13.89;46.68;99144.69;5052520;28;20120;-36
2022/03/30 00:20:35;;;;;;;18.80;7.63;;;;;;;13.79;46.83;99141.84;5052263;28;20105;-37
2022/03/30 00:23:01;;;;;;;15.63;7.57;;;;;;;13.62;47.21;99144.44;5052445;28;20480;-37
2022/03/30 00:25:27;;;;;;;17.42;7.68;;;;;;;13.85;46.71;99160.41;5051896;28;20044;-37
2022/03/30 00:27:52;;;;;;;20.88;8.38;;;;;;;14.02;46.79;99160.44;5052066;28;20041;-37
2022/03/30 00:30:19;;;;;;;18.95;7.30;;;;;;;13.83;47.12;99159.03;5052399;28;20031;-38
2022/03/30 00:32:45;;;;;;;17.40;7.50;;;;;;;13.85;46.85;99162.25;5052379;28;20042;-38
2022/03/30 00:35:11;;;;;;;25.00;7.80;;;;;;;13.76;47.36;99161.81;5052182;28;20036;-37
2022/03/30 00:37:37;;;;;;;21.33;8.05;;;;;;;13.64;47.30;99147.69;5051836;28;20028;-38
2022/03/30 00:40:05;;;;;;;22.92;7.63;;;;;;;13.22;48.80;99151.38;5052236;28;20028;-38
2022/03/30 00:42:30;;;;;;;18.77;8.80;;;;;;;13.41;47.70;99143.22;5052145;28;20480;-36
2022/03/30 00:44:56;;;;;;;21.58;8.55;;;;;;;13.34;47.90;99142.56;5051842;28;20021;-37
2022/03/30 00:47:26;;;;;;;20.63;8.55;;;;;;;13.24;47.96;99151.13;5051323;28;20361;-37
2022/03/30 00:49:53;;;;;;;19.60;8.10;;;;;;;12.97;48.29;99148.16;5052068;28;20078;-37
2022/03/30 00:52:23;;;;;;;22.73;8.65;;;;;;;13.10;48.10;99142.56;5051671;28;20032;-38
2022/03/30 00:54:50;;;;;;;19.38;9.23;;;;;;;13.16;47.86;99143.50;5051714;28;20358;-38
2022/03/30 00:57:19;;;;;;;22.30;9.00;;;;;;;13.02;48.41;99151.75;5051841;28;20025;-38
2022/03/30 00:59:45;;;;;;;22.60;8.53;;;;;;;13.13;47.75;99143.94;5051675;28;20091;-38
2022/03/30 01:02:10;;;;;;;24.63;8.50;;;;;;;13.09;47.83;99148.94;5052015;28;20029;-38
2022/03/30 01:04:36;;;;;;;19.67;8.75;;;;;;;12.85;48.92;99135.63;5051744;28;20040;-38
2022/03/30 01:07:02;;;;;;;28.58;9.50;;;;;;;12.87;48.09;99138.88;5051015;28;20546;-38
2022/03/30 01:09:28;;;;;;;23.65;9.82;;;;;;;12.91;48.26;99141.91;5051290;28;20045;-38
2022/03/30 01:11:56;;;;;;;24.83;9.98;;;;;;;12.82;48.49;99141.41;5050348;28;20028;-38
2022/03/30 01:14:23;;;;;;;28.05;10.45;;;;;;;12.52;49.03;99136.97;5050956;28;20444;-38
2022/03/30 01:16:49;;;;;;;22.25;10.00;;;;;;;12.27;49.55;99136.38;5051466;28;20024;-38
2022/03/30 01:19:14;;;;;;;26.00;9.27;;;;;;;12.54;49.30;99141.28;5050928;28;20021;-38
2022/03/30 01:21:42;;;;;;;18.65;9.02;;;;;;;12.71;48.59;99137.69;5051568;28;20095;-38
2022/03/30 01:24:10;;;;;;;17.58;8.90;;;;;;;12.69;48.29;99144.31;5051281;28;20149;-38
2022/03/30 01:26:36;;;;;;;24.17;9.48;;;;;;;12.71;48.71;99139.56;5050858;28;20036;-37
2022/03/30 01:32:25;;;;;;;18.17;8.88;;;;;;;12.39;49.59;99126.53;5051652;28;20086;-38
2022/03/30 01:34:38;;;;;;;19.23;9.55;;;;;;;12.51;49.37;99140.72;5050565;28;20400;-38
2022/03/30 01:37:06;;;;;;;19.05;10.43;;;;;;;12.39;49.40;99137.19;5051472;28;20104;-37
2022/03/30 01:39:32;;;;;;;19.40;10.27;;;;;;;12.32;48.90;99145.31;5051564;28;20133;-37
2022/03/30 01:41:57;;;;;;;22.30;9.93;;;;;;;12.23;48.94;99145.88;5050940;28;20208;-38
2022/03/30 01:44:24;;;;;;;20.63;9.60;;;;;;;12.11;49.87;99144.00;5051042;28;20456;-38
2022/03/30 01:46:50;;;;;;;19.45;9.85;;;;;;;12.19;49.75;99150.06;5051098;28;20029;-38
2022/03/30 01:49:21;;;;;;;18.38;9.20;;;;;;;12.35;49.02;99154.72;5051184;28;20060;-37
2022/03/30 01:51:48;;;;;;;22.40;9.73;;;;;;;12.35;49.12;99159.25;5050753;28;20037;-37
2022/03/30 01:54:16;;;;;;;20.10;9.88;;;;;;;12.30;49.37;99150.09;5050749;28;20029;-37
2022/03/30 01:56:41;;;;;;;19.88;9.73;;;;;;;12.23;48.97;99148.56;5051314;28;20060;-38
2022/03/30 01:59:07;;;;;;;22.25;9.82;;;;;;;12.13;49.74;99147.25;5051162;28;20076;-37
2022/03/30 02:01:32;;;;;;;20.42;9.43;;;;;;;12.28;48.99;99157.50;5054950;28;20449;-38
2022/03/30 02:03:58;;;;;;;20.50;9.50;;;;;;;12.26;48.41;99166.75;5055001;28;20075;-37
2022/03/30 02:06:25;;;;;;;18.42;10.30;;;;;;;12.24;49.29;99152.84;5055180;28;20095;-37
2022/03/30 02:08:50;;;;;;;24.35;10.48;;;;;;;12.32;49.63;99155.19;5055098;28;20040;-37
2022/03/30 02:11:16;;;;;;;20.05;9.30;;;;;;;12.12;49.47;99156.28;5054958;28;20091;-37
2022/03/30 02:13:42;;;;;;;17.63;9.48;;;;;;;12.03;49.78;99155.00;5054043;28;20395;-37
2022/03/30 02:16:07;;;;;;;20.20;9.60;;;;;;;12.10;49.77;99160.22;5054828;28;20025;-37
2022/03/30 02:18:33;;;;;;;18.90;10.20;;;;;;;12.17;49.34;99155.63;5055263;28;20411;-37
2022/03/30 02:20:58;;;;;;;24.23;9.93;;;;;;;12.23;48.91;99160.03;5054675;28;20751;-37
2022/03/30 02:23:23;;;;;;;19.40;10.35;;;;;;;12.14;49.30;99161.41;5054569;28;20021;-37
2022/03/30 02:25:49;;;;;;;18.35;10.07;;;;;;;12.27;49.10;99163.06;5054170;28;20035;-37
2022/03/30 02:28:14;;;;;;;17.98;10.73;;;;;;;12.07;49.79;99153.50;5054753;28;20396;-37
2022/03/30 02:30:40;;;;;;;21.25;10.38;;;;;;;12.13;48.79;99159.78;5054454;28;20449;-37
2022/03/30 02:33:05;;;;;;;24.73;10.60;;;;;;;12.06;48.88;99162.53;5054725;28;20570;-37
2022/03/30 02:35:31;;;;;;;20.83;10.50;;;;;;;12.08;49.34;99163.13;5053720;28;20047;-38
2022/03/30 02:37:57;;;;;;;25.77;10.52;;;;;;;12.09;49.69;99164.75;5054416;28;20020;-37
2022/03/30 02:40:23;;;;;;;19.50;10.32;;;;;;;11.92;49.65;99164.59;5054158;28;20036;-38
2022/03/30 02:42:49;;;;;;;21.50;10.65;;;;;;;11.90;49.50;99160.53;5054463;28;20444;-37
2022/03/30 02:45:15;;;;;;;21.60;11.05;;;;;;;11.74;50.16;99162.72;5054063;28;20124;-37
2022/03/30 02:50:25;;;;;;;18.38;10.73;;;;;;;11.74;49.61;99168.06;5053954;28;20083;-51
2022/03/30 02:52:50;;;;;;;29.00;10.68;;;;;;;10.43;53.04;99164.69;5053918;28;20388;-48
2022/03/30 02:55:16;;;;;;;22.23;11.02;;;;;;;9.77;55.50;99161.41;5053488;28;20021;-51
2022/03/30 02:57:41;;;;;;;20.42;11.52;;;;;;;9.07;58.31;99171.06;5053876;28;20021;-48
2022/03/30 03:00:07;;;;;;;21.15;11.35;;;;;;;8.49;60.29;99161.94;5053914;28;20021;-48
2022/03/30 03:02:34;;;;;;;23.83;11.38;;;;;;;8.36;60.94;99162.72;5053847;28;20401;-48
2022/03/30 03:05:03;;;;;;;26.38;12.38;;;;;;;9.18;58.97;99152.66;5053829;28;20021;-48
2022/03/30 03:07:28;;;;;;;26.08;11.80;;;;;;;8.96;59.13;99157.38;5053512;28;20053;-49
2022/03/30 03:09:54;;;;;;;27.77;11.90;;;;;;;8.18;61.57;99160.63;5053773;28;20074;-49
2022/03/30 03:12:21;;;;;;;65.80;32.05;;;;;;;8.08;62.86;99168.16;5053281;28;20044;-48
2022/03/30 03:14:46;;;;;;;75.90;36.10;;;;;;;8.00;62.91;99163.06;5052762;28;20184;-49
2022/03/30 03:17:12;;;;;;;90.57;41.17;;;;;;;8.43;62.30;99162.72;5053090;28;20457;-48
2022/03/30 03:19:37;;;;;;;29.17;14.38;;;;;;;9.26;58.67;99164.88;5053713;28;20017;-51
2022/03/30 03:22:04;;;;;;;23.27;11.45;;;;;;;8.79;61.30;99159.66;5053760;28;20078;-50
2022/03/30 03:24:29;;;;;;;26.02;12.50;;;;;;;8.16;62.57;99159.22;5052566;28;20392;-50
2022/03/30 03:26:55;;;;;;;23.77;12.05;;;;;;;8.02;62.81;99159.19;5052305;28;20028;-50
2022/03/30 03:29:20;;;;;;;23.10;11.38;;;;;;;7.98;63.05;99160.63;5051983;28;20017;-50
2022/03/30 03:31:46;;;;;;;29.20;12.70;;;;;;;7.98;62.97;99157.97;5052255;28;20032;-50
2022/03/30 03:34:12;;;;;;;31.27;13.15;;;;;;;8.02;63.78;99161.84;5052302;28;20033;-49
2022/03/30 03:36:37;;;;;;;27.50;12.63;;;;;;;8.07;63.46;99158.56;5052541;28;20108;-50
2022/03/30 03:39:03;;;;;;;26.88;12.68;;;;;;;8.14;63.22;99161.25;5052022;28;20449;-51
2022/03/30 03:41:28;;;;;;;32.08;12.82;;;;;;;7.96;63.51;99159.19;5052608;28;20508;-51
2022/03/30 03:43:54;;;;;;;25.95;12.73;;;;;;;8.05;63.17;99165.91;5053207;28;20021;-50
2022/03/30 03:46:19;;;;;;;21.60;11.48;;;;;;;8.18;62.13;99168.59;5053275;28;20082;-52
2022/03/30 03:48:46;;;;;;;26.13;12.02;;;;;;;8.48;62.24;99168.25;5052931;28;20021;-49
2022/03/30 03:51:11;;;;;;;27.02;12.23;;;;;;;9.08;59.68;99175.31;5053159;28;20068;-50
2022/03/30 03:53:37;;;;;;;20.20;11.48;;;;;;;9.13;58.27;99178.19;5052857;28;20052;-50
2022/03/30 03:56:04;;;;;;;46.72;21.67;;;;;;;8.46;60.90;99186.19;5053476;28;20112;-48
2022/03/30 03:58:29;;;;;;;44.17;20.85;;;;;;;9.22;64.79;99176.94;5053480;28;20028;-49
2022/03/30 04:00:55;;;;;;;45.45;21.05;;;;;;;9.47;58.43;99160.31;5052471;28;20025;-52
2022/03/30 04:03:21;;;;;;;39.47;18.17;;;;;;;9.09;58.65;99169.00;5053087;28;20055;-52
2022/03/30 04:05:46;;;;;;;44.88;17.27;;;;;;;8.89;59.90;99171.69;5052483;28;20055;-51
2022/03/30 04:08:12;;;;;;;38.90;17.27;;;;;;;8.74;60.16;99174.59;5052581;28;20024;-48
2022/03/30 04:10:37;;;;;;;36.45;17.58;;;;;;;8.75;60.19;99174.34;5052258;28;20097;-51
2022/03/30 04:13:07;;;;;;;33.55;17.40;;;;;;;8.61;60.86;99181.50;5052428;28;20052;-50
2022/03/30 04:15:37;;;;;;;;;;;;;;;8.56;60.80;99173.34;5052724;28;20029;-50
2022/03/30 04:18:04;;;;;;;36.17;16.52;;;;;;;8.29;61.33;99169.84;5052576;28;19943;-50
2022/03/30 04:20:30;;;;;;;33.40;15.68;;;;;;;8.26;61.54;99174.72;5051959;28;20170;-51
2022/03/30 04:22:56;;;;;;;36.88;16.35;;;;;;;8.10;62.78;99174.09;5051694;28;20142;-47
2022/03/30 04:25:21;;;;;;;39.47;16.60;;;;;;;8.37;62.29;99176.78;5052258;28;20104;-50
2022/03/30 04:27:49;;;;;;;37.35;16.75;;;;;;;8.18;61.88;99176.53;5051853;28;20419;-49
2022/03/30 04:30:17;;;;;;;32.30;16.05;;;;;;;8.16;61.77;99175.13;5052020;28;20036;-49
2022/03/30 04:32:44;;;;;;;36.85;15.93;;;;;;;8.12;63.03;99176.53;5047623;28;20040;-49
2022/03/30 04:35:11;;;;;;;59.33;28.63;;;;;;;7.97;63.27;99179.34;5040394;28;20464;-51
2022/03/30 04:37:37;;;;;;;47.42;21.95;;;;;;;8.27;62.78;99184.31;5047573;28;20033;-49
2022/03/30 04:40:03;;;;;;;34.70;17.30;;;;;;;8.43;62.63;99188.44;5051551;28;20032;-51
2022/03/30 04:42:28;;;;;;;40.53;17.23;;;;;;;8.63;61.51;99189.25;5050277;28;20385;-50
2022/03/30 04:44:54;;;;;;;34.42;15.73;;;;;;;8.90;60.58;99190.06;5050932;28;20051;-51
2022/03/30 04:47:19;;;;;;;44.03;18.02;;;;;;;8.83;61.06;99193.75;5051052;28;20439;-49
2022/03/30 04:49:45;;;;;;;49.80;20.88;;;;;;;9.03;60.09;99181.28;5050780;28;20016;-47
2022/03/30 04:52:10;;;;;;;31.30;14.48;;;;;;;9.14;59.14;99195.75;5050219;28;20421;-48
2022/03/30 04:54:36;;;;;;;39.95;15.80;;;;;;;9.44;58.33;99187.28;5050443;28;20464;-51
2022/03/30 04:57:02;;;;;;;28.77;15.10;;;;;;;9.48;58.49;99181.38;5050797;28;20195;-51
2022/03/30 04:59:28;;;;;;;102.57;46.38;;;;;;;9.64;58.21;99190.69;5049762;28;20024;-51
2022/03/30 05:01:53;;;;;;;124.28;59.95;;;;;;;9.91;57.00;99193.22;5049695;28;20029;-50
2022/03/30 05:04:19;;;;;;;36.35;18.10;;;;;;;10.03;57.10;99183.53;5049721;28;20032;-50
2022/03/30 05:06:44;;;;;;;59.65;28.02;;;;;;;10.30;55.61;99194.88;5050574;28;20571;-49
2022/03/30 05:09:11;;;;;;;85.57;41.78;;;;;;;10.53;55.31;99188.97;5050435;28;20434;-51
2022/03/30 05:11:37;;;;;;;32.80;15.77;;;;;;;10.60;54.75;99190.75;5050448;28;20029;-48
2022/03/30 05:14:02;;;;;;;31.17;16.30;;;;;;;10.75;53.26;99188.59;5050104;28;20052;-52
2022/03/30 05:16:28;;;;;;;46.67;22.45;;;;;;;11.06;52.52;99190.38;5050787;28;20039;-50
2022/03/30 05:18:53;;;;;;;95.40;47.17;;;;;;;11.53;53.30;99193.31;5051029;28;20598;-47
2022/03/30 05:21:19;;;;;;;31.73;14.73;;;;;;;12.64;52.25;99197.56;5050879;28;20040;-49
2022/03/30 05:23:44;;;;;;;36.50;14.95;;;;;;;13.46;54.55;99204.78;5051092;28;20029;-48
2022/03/30 05:26:10;;;;;;;29.67;14.73;;;;;;;13.66;49.30;99196.38;5050420;28;20457;-49
2022/03/30 05:28:38;;;;;;;36.72;16.38;;;;;;;14.69;49.79;99201.75;5050799;28;20487;-48
2022/03/30 05:31:05;;;;;;;39.55;17.08;;;;;;;15.64;43.42;99199.06;5050733;28;20032;-49
2022/03/30 05:33:30;;;;;;;40.35;17.33;;;;;;;16.06;40.77;99201.16;5050252;28;20021;-48
2022/03/30 05:35:56;;;;;;;41.65;18.83;;;;;;;16.38;40.08;99203.09;5049657;28;20024;-50
2022/03/30 05:38:21;;;;;;;43.35;18.65;;;;;;;16.52;39.18;99190.84;5050961;28;20397;-52
2022/03/30 05:40:48;;;;;;;49.08;20.40;;;;;;;16.72;38.78;99203.66;5050553;28;20040;-50
2022/03/30 05:43:13;;;;;;;44.55;21.27;;;;;;;16.83;38.63;99207.25;5050346;28;20033;-49
2022/03/30 05:45:39;;;;;;;49.88;20.35;;;;;;;17.11;38.43;99211.47;5050608;28;20032;-51
2022/03/30 05:48:04;;;;;;;44.08;21.70;;;;;;;17.44;37.64;99203.31;5050659;28;20029;-51
2022/03/30 05:50:30;;;;;;;47.47;21.85;;;;;;;17.74;36.58;99208.84;5050331;28;20024;-49
2022/03/30 05:52:55;;;;;;;51.17;22.80;;;;;;;17.82;36.49;99214.75;5050094;28;20318;-51
2022/03/30 05:55:21;;;;;;;47.90;24.42;;;;;;;18.14;35.39;99206.53;5050130;28;20036;-51
2022/03/30 05:57:46;;;;;;;59.50;24.88;;;;;;;17.91;35.91;99219.41;5050506;28;20029;-49
2022/03/30 06:00:13;;;;;;;53.70;26.08;;;;;;;17.72;35.59;99204.78;5050439;28;20039;-51
2022/03/30 06:02:38;;;;;;;48.65;26.85;;;;;;;18.14;35.78;99203.84;5050392;28;20064;-51
2022/03/30 06:05:05;;;;;;;49.03;25.15;;;;;;;18.05;35.43;99216.22;5050125;28;20029;-50
2022/03/30 06:07:30;;;;;;;56.13;22.25;;;;;;;17.40;36.99;99203.00;5050253;28;20076;-51
2022/03/30 06:09:56;;;;;;;41.05;16.33;;;;;;;18.34;35.30;99197.69;5050253;28;20063;-48
2022/03/30 06:12:24;;;;;;;34.75;15.23;;;;;;;18.65;34.16;99192.31;5050107;28;20020;-52
2022/03/30 06:14:50;;;;;;;33.70;15.57;;;;;;;19.12;33.57;99194.72;5050084;28;20388;-50
2022/03/30 06:17:18;;;;;;;35.42;14.00;;;;;;;19.37;33.32;99187.66;5049996;28;20025;-49
2022/03/30 06:19:46;;;;;;;32.45;14.85;;;;;;;19.65;32.94;99191.59;5049763;28;20041;-50
2022/03/30 06:22:12;;;;;;;36.30;14.20;;;;;;;19.68;33.29;99184.81;5049702;28;20036;-51
2022/03/30 06:24:39;;;;;;;29.17;14.18;;;;;;;19.94;32.77;99198.25;5049748;28;20108;-48
2022/03/30 06:27:06;;;;;;;29.88;13.38;;;;;;;20.28;32.45;99198.28;5049883;28;20090;-52
2022/03/30 06:29:33;;;;;;;28.67;14.13;;;;;;;20.89;31.23;99199.72;5049638;28;20108;-48
2022/03/30 06:31:58;;;;;;;23.48;13.88;;;;;;;21.69;30.26;99195.63;5049874;28;20042;-48
2022/03/30 06:34:24;;;;;;;25.20;14.02;;;;;;;21.63;31.26;99199.50;5049388;28;20518;-50
2022/03/30 06:36:49;;;;;;;26.38;14.05;;;;;;;22.01;29.99;99208.47;5049906;28;20480;-51
2022/03/30 06:39:15;;;;;;;30.83;15.57;;;;;;;22.47;29.20;99208.94;5049215;28;20283;-52
2022/03/30 06:41:42;;;;;;;29.23;15.30;;;;;;;22.91;28.45;99210.38;5033153;28;20107;-52
2022/03/30 06:44:08;;;;;;;29.30;15.95;;;;;;;22.75;28.52;99216.06;5033011;28;20021;-50
2022/03/30 06:46:38;;;;;;;33.17;17.52;;;;;;;23.05;27.96;99215.84;5052094;28;20086;-53
2022/03/30 06:49:10;;;;;;;35.20;19.13;;;;;;;23.46;27.62;99217.81;5053123;28;20025;-52
2022/03/30 06:51:36;;;;;;;36.80;18.65;;;;;;;23.40;27.48;99225.25;5053054;28;20032;-50
2022/03/30 06:54:02;;;;;;;39.50;21.08;;;;;;;23.57;27.66;99228.16;5051209;28;20087;-51
2022/03/30 06:56:28;;;;;;;35.58;21.40;;;;;;;23.29;27.99;99230.06;5050443;28;20060;-49
2022/03/30 06:58:54;;;;;;;42.95;22.30;;;;;;;23.58;27.92;99231.69;5053158;28;20046;-52
2022/03/30 07:01:19;;;;;;;39.88;21.45;;;;;;;24.15;27.15;99229.41;5052418;28;20490;-49
2022/03/30 07:03:45;;;;;;;38.42;18.38;;;;;;;24.11;26.84;99239.28;5052950;28;20055;-48
2022/03/30 07:06:11;;;;;;;42.65;19.98;;;;;;;23.24;27.78;99232.84;5053094;28;20096;-50
2022/03/30 07:11:21;;;;;;;30.98;14.43;;;;;;;23.49;28.48;99238.91;5053072;28;20067;-50
2022/03/30 07:13:46;;;;;;;25.33;11.65;;;;;;;23.67;27.80;99239.94;5052817;28;20028;-57
2022/03/30 07:16:12;;;;;;;21.98;11.30;;;;;;;23.75;27.44;99226.44;5041829;28;20033;-51
2022/03/30 07:18:37;;;;;;;22.40;10.82;;;;;;;23.66;27.74;99224.72;5044378;28;20025;-50
2022/03/30 07:21:03;;;;;;;19.15;11.18;;;;;;;24.11;27.35;99225.69;5033272;28;20040;-52
2022/03/30 07:23:28;;;;;;;25.40;11.18;;;;;;;23.85;27.47;99227.38;5033008;28;20013;-52
2022/03/30 07:25:54;;;;;;;25.30;11.32;;;;;;;22.97;28.62;99226.25;5033397;28;20045;-50
2022/03/30 07:28:20;;;;;;;20.35;10.63;;;;;;;22.53;29.80;99227.53;5033177;28;20539;-49
2022/03/30 07:30:48;;;;;;;19.08;11.00;;;;;;;22.62;29.33;99225.75;5033445;28;20026;-48
2022/03/30 07:33:15;;;;;;;17.48;10.68;;;;;;;22.95;28.89;99228.47;5032872;28;20104;-49
2022/03/30 07:35:46;;;;;;;25.33;11.07;;;;;;;23.19;28.91;99213.97;5033002;28;20044;-51
2022/03/30 07:38:16;;;;;;;21.63;10.27;;;;;;;22.78;28.97;99217.38;5033706;28;20021;-37
2022/03/30 07:40:42;;;;;;;26.48;11.27;;;;;;;23.54;27.88;99220.63;5035854;28;20021;-38
2022/03/30 07:43:08;;;;;;;25.02;11.73;;;;;;;23.37;28.10;99223.94;5041023;28;20086;-38
2022/03/30 07:45:34;;;;;;;24.13;11.02;;;;;;;23.84;27.40;99231.16;5032383;28;20080;-37
2022/03/30 07:48:00;;;;;;;23.92;10.80;;;;;;;24.20;26.62;99223.88;5037830;28;20080;-37
2022/03/30 07:50:25;;;;;;;20.27;10.32;;;;;;;24.20;26.79;99225.78;5033038;28;20100;-38
2022/03/30 07:52:51;;;;;;;17.50;10.07;;;;;;;24.14;27.23;99227.00;5032911;28;20055;-37
2022/03/30 07:55:16;;;;;;;20.83;10.60;;;;;;;24.08;26.82;99223.59;5032007;28;20405;-37
2022/03/30 07:57:42;;;;;;;20.40;10.13;;;;;;;24.15;27.14;99223.19;5030851;28;20056;-38
2022/03/30 08:00:11;;;;;;;17.33;10.07;;;;;;;24.27;26.88;99223.44;5030911;28;20021;-37
2022/03/30 08:02:37;;;;;;;21.33;11.18;;;;;;;24.30;26.42;99222.03;5030556;28;20030;-37
2022/03/30 08:05:03;;;;;;;26.50;11.10;;;;;;;24.38;26.58;99232.16;5029792;28;20426;-37
2022/03/30 08:07:30;;;;;;;18.38;10.40;;;;;;;25.28;25.30;99226.69;5029895;28;20149;-37
2022/03/30 08:09:56;;;;;;;21.95;10.43;;;;;;;25.15;25.83;99219.38;5030233;28;20504;-37
2022/03/30 08:12:22;;;;;;;22.02;11.52;;;;;;;25.28;25.93;99221.25;5033392;28;20032;-36
2022/03/30 08:14:48;;;;;;;15.65;10.23;;;;;;;25.28;25.29;99204.91;5049909;28;20122;-37
2022/03/30 08:17:14;;;;;;;17.83;10.00;;;;;;;24.60;26.35;99198.78;5049819;28;20106;-37
2022/03/30 08:19:40;;;;;;;18.20;9.65;;;;;;;23.69;27.83;99197.78;5051296;28;20461;-37
2022/03/30 08:24:50;;;;;;;19.20;10.38;;;;;;;23.83;27.62;99207.84;5052058;28;20122;-38
2022/03/30 08:27:18;;;;;;;20.08;9.70;;;;;;;24.35;26.89;99200.97;5051302;28;20522;-38
2022/03/30 08:29:44;;;;;;;17.67;9.05;;;;;;;24.66;26.36;99200.25;5050973;28;20457;-38
2022/03/30 08:32:12;;;;;;;16.42;9.02;;;;;;;24.22;27.21;99195.56;5051387;28;20117;-38
2022/03/30 08:34:38;;;;;;;18.38;9.23;;;;;;;24.37;26.65;99197.94;5051240;28;20546;-38
2022/03/30 08:37:04;;;;;;;14.98;8.52;;;;;;;24.48;26.44;99193.84;5051062;28;20112;-38
2022/03/30 08:39:30;;;;;;;14.68;8.82;;;;;;;25.04;25.66;99204.47;5051591;28;20024;-38
2022/03/30 08:41:56;;;;;;;15.10;8.65;;;;;;;26.10;24.67;99191.69;5051434;28;20032;-38
2022/03/30 08:44:21;;;;;;;17.33;9.15;;;;;;;27.04;23.03;99193.00;5051074;28;20029;-37
2022/03/30 08:46:47;;;;;;;19.90;9.05;;;;;;;27.08;23.60;99186.56;5051175;28;20393;-38
2022/03/30 08:49:16;;;;;;;19.10;9.00;;;;;;;27.26;23.58;99179.13;5050877;28;20090;-36
2022/03/30 08:51:47;;;;;;;15.80;8.73;;;;;;;27.58;22.81;99176.88;5050805;28;20127;-36
2022/03/30 08:54:13;;;;;;;15.32;8.93;;;;;;;27.49;22.75;99178.84;5050970;28;20065;-38
2022/03/30 08:56:40;;;;;;;16.83;8.85;;;;;;;26.65;23.30;99157.47;5051080;28;20052;-36
2022/03/30 08:59:10;;;;;;;16.02;8.52;;;;;;;26.40;22.89;99169.19;5050729;28;20033;-38
2022/03/30 09:01:43;;;;;;;16.30;8.65;;;;;;;26.45;23.53;99166.31;5050719;28;20112;-36
2022/03/30 09:04:12;;;;;;;22.20;9.27;;;;;;;26.50;23.66;99166.13;5050200;28;20375;-37
2022/03/30 09:06:44;;;;;;;15.20;8.45;;;;;;;26.00;24.12;99159.28;5051051;28;20079;-37
2022/03/30 09:09:11;;;;;;;16.95;8.70;;;;;;;26.56;23.37;99143.03;5050488;28;20507;-37
2022/03/30 09:11:52;;;;;;;16.00;8.90;;;;;;;26.26;24.04;99144.84;5050384;28;20036;-37
2022/03/30 09:14:20;;;;;;;14.15;7.95;;;;;;;24.90;25.76;99150.13;5050413;28;20025;-37
2022/03/30 09:16:57;;;;;;;17.45;8.55;;;;;;;24.98;25.35;99135.78;5050194;28;20036;-38
2022/03/30 09:19:24;;;;;;;19.48;8.50;;;;;;;25.47;24.91;99133.06;5050217;28;20017;-38
2022/03/30 09:21:58;;;;;;;11.95;8.40;;;;;;;24.89;25.48;99138.44;5050413;28;20036;-36
2022/03/30 09:24:29;;;;;;;12.38;7.70;;;;;;;24.73;26.29;99131.78;5050234;28;20020;-38
2022/03/30 09:26:57;;;;;;;19.52;8.00;;;;;;;24.86;25.87;99130.91;5050105;28;20021;-38
2022/03/30 09:29:25;;;;;;;13.23;8.45;;;;;;;23.77;27.68;99115.56;5049962;28;20029;-38
2022/03/30 09:31:52;;;;;;;16.57;8.27;;;;;;;24.61;27.12;99104.38;5050190;28;20418;-38
2022/03/30 09:34:19;;;;;;;15.43;8.43;;;;;;;24.98;26.73;99117.50;5049868;28;20044;-37
2022/03/30 09:36:45;;;;;;;14.27;8.40;;;;;;;25.04;26.31;99109.22;5050176;28;20032;-37
2022/03/30 09:39:32;;;;;;;12.93;8.43;;;;;;;24.29;27.15;99100.78;5050378;28;20029;-37
2022/03/30 09:41:59;;;;;;;15.60;8.95;;;;;;;24.62;27.04;99093.19;5049785;28;20056;-38
2022/03/30 09:44:28;;;;;;;15.60;8.43;;;;;;;24.39;27.54;99093.19;5049787;28;20052;-37
2022/03/30 09:46:58;;;;;;;13.50;8.30;;;;;;;24.18;27.06;99092.13;5049688;28;20444;-38
2022/03/30 09:49:47;;;;;;;19.88;8.98;;;;;;;24.47;26.85;99088.13;5049848;28;20040;-38
2022/03/30 09:52:29;;;;;;;15.65;8.95;;;;;;;23.55;27.43;99062.03;5049704;28;20098;-37
2022/03/30 09:55:00;;;;;;;13.38;7.95;;;;;;;23.52;27.56;99069.97;5049917;28;20066;-37
2022/03/30 09:57:40;;;;;;;17.15;8.80;;;;;;;23.76;26.92;99065.06;5049873;28;20079;-37
2022/03/30 10:00:18;;;;;;;14.63;8.98;;;;;;;24.29;25.66;99070.91;5049866;28;20024;-37
2022/03/30 10:02:51;;;;;;;15.38;8.77;;;;;;;24.62;24.87;99062.44;5049712;28;20032;-37
2022/03/30 10:05:19;;;;;;;21.00;9.65;;;;;;;24.25;25.66;99048.16;5050030;28;20029;-37
2022/03/30 10:07:48;;;;;;;13.20;9.15;;;;;;;24.26;25.44;99052.50;5050127;28;20405;-38
2022/03/30 10:10:17;;;;;;;15.70;8.68;;;;;;;23.78;26.10;99038.44;5050229;28;20020;-37
2022/03/30 10:12:43;;;;;;;15.48;8.98;;;;;;;23.59;26.23;99046.72;5049674;28;20028;-36
2022/03/30 10:15:10;;;;;;;16.50;8.57;;;;;;;23.90;25.92;99037.09;5049875;28;20040;-38
2022/03/30 10:17:36;;;;;;;18.35;9.63;;;;;;;23.79;26.58;99037.31;5050061;28;20053;-37
2022/03/30 10:20:04;;;;;;;13.90;8.98;;;;;;;23.77;26.51;99028.63;5049642;28;20444;-38
2022/03/30 10:22:48;;;;;;;19.15;9.13;;;;;;;24.06;26.25;99038.28;5053751;28;20116;-38
2022/03/30 10:25:31;;;;;;;19.35;8.52;;;;;;;24.54;25.32;99037.66;5053232;28;20024;-37
2022/03/30 10:28:22;;;;;;;15.55;8.73;;;;;;;25.15;25.02;99051.44;5054113;28;20108;-38
2022/03/30 10:30:55;;;;;;;13.70;8.82;;;;;;;24.88;24.23;99051.69;5053764;28;20020;-37
2022/03/30 10:33:33;;;;;;;17.05;8.20;;;;;;;24.86;24.13;99051.19;5053529;28;20095;-38
2022/03/30 10:36:20;;;;;;;15.98;8.40;;;;;;;24.04;25.83;99037.00;5053293;28;20056;-38
2022/03/30 10:39:14;;;;;;;16.67;8.85;;;;;;;24.62;25.51;99041.53;5053374;28;20040;-38
2022/03/30 10:41:56;;;;;;;16.20;8.65;;;;;;;25.24;24.52;99035.13;5053034;28;20328;-36
2022/03/30 10:44:41;;;;;;;16.95;8.60;;;;;;;25.80;23.53;99020.88;5052923;28;20032;-37
2022/03/30 10:47:10;;;;;;;12.57;8.55;;;;;;;26.41;23.17;99012.63;5053691;28;20032;-37
2022/03/30 10:50:08;;;;;;;14.02;8.48;;;;;;;26.62;22.55;99013.53;5053682;28;20020;-38
2022/03/30 10:52:37;;;;;;;18.52;8.80;;;;;;;25.50;23.74;99018.03;5052147;28;20179;-37
2022/03/30 10:55:12;;;;;;;13.10;8.32;;;;;;;25.70;23.68;99001.06;5053233;28;20401;-39
2022/03/30 10:57:49;;;;;;;22.90;9.05;;;;;;;25.77;23.52;98991.59;5053227;28;20420;-37
2022/03/30 11:00:19;;;;;;;19.55;8.77;;;;;;;25.42;23.92;98986.13;5053126;28;20021;-38
2022/03/30 11:02:45;;;;;;;17.73;8.68;;;;;;;25.72;23.66;98981.63;5053213;28;20210;-38
2022/03/30 11:05:15;;;;;;;17.27;8.18;;;;;;;25.70;23.73;98970.25;5052726;28;20108;-38
2022/03/30 11:07:42;;;;;;;17.63;8.20;;;;;;;25.21;24.08;98980.50;5052369;28;20044;-37
2022/03/30 11:10:21;;;;;;;16.42;8.50;;;;;;;26.27;23.06;98972.72;5053043;28;20044;-38
2022/03/30 11:12:59;;;;;;;16.87;8.50;;;;;;;26.80;22.32;98967.84;5052779;28;20077;-37
2022/03/30 11:15:26;;;;;;;19.17;8.10;;;;;;;26.86;22.52;98952.84;5053170;28;20025;-38
2022/03/30 11:18:14;;;;;;;13.68;8.80;;;;;;;25.74;23.33;98950.25;5053124;28;20101;-37
2022/03/30 11:20:39;;;;;;;16.08;8.20;;;;;;;25.25;23.24;98959.72;5053052;28;20184;-39
2022/03/30 11:23:37;;;;;;;15.32;8.23;;;;;;;25.01;24.11;98950.06;5052909;28;20490;-38
2022/03/30 11:26:03;;;;;;;12.60;8.38;;;;;;;24.90;23.49;98940.59;5044854;28;20040;-38
2022/03/30 11:28:36;;;;;;;15.32;9.07;;;;;;;24.26;24.08;98936.41;5052308;28;20027;-37
2022/03/30 11:31:06;;;;;;;15.85;8.82;;;;;;;24.24;23.98;98924.22;5053166;28;20020;-37
2022/03/30 11:33:35;;;;;;;16.77;9.02;;;;;;;24.24;24.18;98916.91;5051122;28;20079;-38
2022/03/30 11:36:03;;;;;;;15.75;8.70;;;;;;;24.72;23.46;98907.13;5052864;28;20075;-37